createdAt,value
2018-03-26T00:01:49.568Z,18.10
2018-03-26T00:04:15.752Z,16.70
2018-03-26T00:06:43.098Z,19.30
2018-03-26T00:09:09.289Z,18.83
2018-03-26T00:11:35.507Z,17.37
2018-03-26T00:14:01.701Z,19.70
2018-03-26T00:16:28.656Z,17.80
2018-03-26T00:18:54.844Z,18.00
2018-03-26T00:21:21.069Z,17.17
2018-03-26T00:23:47.265Z,18.27
2018-03-26T00:26:13.508Z,17.80
2018-03-26T00:28:39.714Z,17.20
2018-03-26T00:31:05.942Z,17.23
2018-03-26T00:33:32.124Z,17.03
2018-03-26T00:35:58.360Z,19.00
2018-03-26T00:38:24.579Z,17.20
2018-03-26T00:40:50.797Z,18.83
2018-03-26T00:43:17.000Z,17.93
2018-03-26T00:45:43.217Z,17.30
2018-03-26T00:48:09.428Z,17.67
2018-03-26T00:50:35.660Z,17.80
2018-03-26T00:53:01.850Z,18.97
2018-03-26T00:55:28.065Z,15.43
2018-03-26T00:57:54.261Z,18.97
2018-03-26T01:00:20.484Z,19.23
2018-03-26T01:02:46.697Z,18.47
2018-03-26T01:05:13.912Z,19.07
2018-03-26T01:07:40.144Z,18.63
2018-03-26T01:10:06.349Z,17.77
2018-03-26T01:12:32.556Z,15.93
2018-03-26T01:14:59.330Z,19.67
2018-03-26T01:17:26.789Z,17.70
2018-03-26T01:19:53.426Z,18.80
2018-03-26T01:22:19.665Z,15.90
2018-03-26T01:24:45.852Z,18.60
2018-03-26T01:27:12.100Z,18.23
2018-03-26T01:29:38.292Z,18.70
2018-03-26T01:32:04.508Z,18.20
2018-03-26T01:34:31.439Z,17.97
2018-03-26T01:36:57.656Z,18.97
2018-03-26T01:39:23.845Z,19.47
2018-03-26T01:41:50.068Z,19.93
2018-03-26T01:44:16.327Z,18.87
2018-03-26T01:46:42.540Z,18.23
2018-03-26T01:49:08.744Z,16.90
2018-03-26T01:51:35.200Z,18.23
2018-03-26T01:54:01.396Z,17.53
2018-03-26T01:56:27.661Z,19.57
2018-03-26T01:58:53.852Z,18.13
2018-03-26T02:01:20.828Z,18.33
2018-03-26T02:03:47.046Z,17.70
2018-03-26T02:06:13.274Z,17.33
2018-03-26T02:08:39.501Z,17.10
2018-03-26T02:11:05.713Z,18.97
2018-03-26T02:13:32.664Z,17.10
2018-03-26T02:15:59.600Z,16.10
2018-03-26T02:18:26.557Z,17.10
2018-03-26T02:20:53.489Z,17.77
2018-03-26T02:23:20.451Z,15.60
2018-03-26T02:25:46.701Z,16.20
2018-03-26T02:28:12.984Z,15.83
2018-03-26T02:30:39.172Z,17.53
2018-03-26T02:33:05.388Z,18.10
2018-03-26T02:35:31.835Z,19.00
2018-03-26T02:37:58.057Z,18.07
2018-03-26T02:40:24.256Z,18.30
2018-03-26T02:42:51.192Z,17.23
2018-03-26T02:45:18.150Z,18.27
2018-03-26T02:47:44.363Z,17.10
2018-03-26T02:50:11.325Z,17.83
2018-03-26T02:52:37.589Z,18.00
2018-03-26T02:55:03.805Z,16.33
2018-03-26T02:57:30.017Z,18.27
2018-03-26T02:59:56.235Z,17.20
2018-03-26T03:02:23.172Z,17.63
2018-03-26T03:04:50.129Z,17.90
2018-03-26T03:07:16.332Z,16.93
2018-03-26T03:09:42.558Z,17.70
2018-03-26T03:12:08.752Z,17.77
2018-03-26T03:14:35.072Z,18.23
2018-03-26T03:17:01.264Z,18.40
2018-03-26T03:19:28.204Z,19.90
2018-03-26T03:21:54.487Z,18.40
2018-03-26T03:24:20.676Z,18.70
2018-03-26T03:26:47.660Z,17.60
2018-03-26T03:29:13.857Z,19.67
2018-03-26T03:31:40.826Z,21.23
2018-03-26T03:34:07.028Z,19.00
2018-03-26T03:36:33.996Z,18.50
2018-03-26T03:39:00.197Z,19.07
2018-03-26T03:41:27.160Z,19.33
2018-03-26T03:43:53.348Z,20.70
2018-03-26T03:46:19.561Z,19.30
2018-03-26T03:48:45.764Z,20.70
2018-03-26T03:51:11.988Z,21.80
2018-03-26T03:53:38.185Z,19.20
2018-03-26T03:56:05.204Z,20.13
2018-03-26T03:58:31.409Z,20.07
2018-03-26T04:00:57.620Z,21.97
2018-03-26T04:03:23.809Z,21.47
2018-03-26T04:05:50.784Z,21.80
2018-03-26T04:08:16.971Z,21.00
2018-03-26T04:10:43.184Z,20.50
2018-03-26T04:13:09.372Z,20.23
2018-03-26T04:15:35.596Z,23.27
2018-03-26T04:18:02.532Z,22.60
2018-03-26T04:20:29.557Z,21.93
2018-03-26T04:22:55.744Z,22.50
2018-03-26T04:25:21.957Z,21.90
2018-03-26T04:27:48.182Z,20.20
2018-03-26T04:30:14.401Z,23.43
2018-03-26T04:32:40.600Z,21.53
2018-03-26T04:35:06.820Z,21.23
2018-03-26T04:37:33.021Z,21.83
2018-03-26T04:39:59.232Z,21.17
2018-03-26T04:42:25.420Z,20.63
2018-03-26T04:44:51.642Z,22.60
2018-03-26T04:47:17.830Z,21.97
2018-03-26T04:49:44.053Z,23.13
2018-03-26T04:52:10.244Z,19.87
2018-03-26T04:54:37.212Z,21.93
2018-03-26T04:57:03.413Z,22.53
2018-03-26T04:59:30.368Z,21.33
2018-03-26T05:01:57.309Z,20.77
2018-03-26T05:04:24.261Z,22.10
2018-03-26T05:06:51.187Z,21.27
2018-03-26T05:09:17.400Z,20.33
2018-03-26T05:11:43.599Z,21.77
2018-03-26T05:14:09.817Z,18.80
2018-03-26T05:16:36.008Z,21.17
2018-03-26T05:19:02.232Z,20.10
2018-03-26T05:21:28.417Z,19.30
2018-03-26T05:23:54.638Z,21.57
2018-03-26T05:26:20.857Z,19.60
2018-03-26T05:28:47.067Z,17.77
2018-03-26T05:31:14.008Z,18.83
2018-03-26T05:33:40.966Z,20.27
2018-03-26T05:36:07.198Z,18.13
2018-03-26T05:38:34.140Z,19.20
2018-03-26T05:41:01.101Z,18.90
2018-03-26T05:43:27.300Z,19.77
2018-03-26T05:45:54.265Z,18.60
2018-03-26T05:48:20.525Z,19.30
2018-03-26T05:50:46.748Z,20.03
2018-03-26T05:53:12.940Z,19.63
2018-03-26T05:55:39.889Z,19.83
2018-03-26T05:58:06.824Z,18.00
2018-03-26T06:00:33.784Z,18.67
2018-03-26T06:03:00.744Z,19.87
2018-03-26T06:05:26.966Z,20.13
2018-03-26T06:07:53.168Z,19.13
2018-03-26T06:10:19.406Z,18.47
2018-03-26T06:12:46.335Z,20.37
2018-03-26T06:15:12.553Z,19.30
2018-03-26T06:17:38.765Z,18.40
2018-03-26T06:20:04.985Z,19.43
2018-03-26T06:22:31.192Z,18.60
2018-03-26T06:24:57.478Z,20.97
2018-03-26T06:27:23.732Z,20.40
2018-03-26T06:29:50.716Z,21.80
2018-03-26T06:32:16.904Z,21.47
2018-03-26T06:34:43.893Z,18.60
2018-03-26T06:37:16.275Z,19.20
2018-03-26T06:39:42.524Z,17.97
2018-03-26T06:42:08.720Z,18.63
2018-03-26T06:44:34.920Z,19.57
2018-03-26T06:47:01.911Z,21.07
2018-03-26T06:49:28.103Z,20.77
2018-03-26T06:51:54.321Z,22.50
2018-03-26T06:54:21.275Z,21.40
2018-03-26T06:56:48.286Z,21.20
2018-03-26T06:59:14.442Z,21.60
2018-03-26T07:01:41.412Z,21.77
2018-03-26T07:04:07.613Z,21.27
2018-03-26T07:06:34.578Z,22.20
2018-03-26T07:09:00.785Z,21.60
2018-03-26T07:11:27.769Z,23.40
2018-03-26T07:13:53.991Z,18.33
2018-03-26T07:16:20.217Z,20.70
2018-03-26T07:18:46.412Z,21.33
2018-03-26T07:21:12.639Z,21.17
2018-03-26T07:23:38.837Z,22.30
2018-03-26T07:26:05.080Z,22.37
2018-03-26T07:28:31.303Z,21.87
2018-03-26T07:30:57.536Z,21.33
2018-03-26T07:33:23.730Z,23.10
2018-03-26T07:35:50.154Z,23.20
2018-03-26T07:38:16.353Z,24.73
2018-03-26T07:40:43.317Z,23.97
2018-03-26T07:43:09.588Z,23.87
2018-03-26T07:45:35.825Z,25.33
2018-03-26T07:48:02.058Z,25.90
2018-03-26T07:50:28.257Z,25.83
2018-03-26T07:52:54.452Z,26.70
2018-03-26T07:55:21.412Z,26.77
2018-03-26T07:57:47.637Z,28.70
2018-03-26T08:00:14.616Z,28.10
2018-03-26T08:02:40.803Z,24.23
2018-03-26T08:05:07.772Z,28.87
2018-03-26T08:07:33.972Z,27.43
2018-03-26T08:10:00.928Z,30.30
2018-03-26T08:12:27.865Z,32.10
2018-03-26T08:14:54.112Z,29.87
2018-03-26T08:17:20.343Z,33.00
2018-03-26T08:19:46.581Z,27.67
2018-03-26T08:22:12.776Z,29.57
2018-03-26T08:24:39.764Z,31.53
2018-03-26T08:27:05.980Z,27.10
2018-03-26T08:29:32.187Z,31.17
2018-03-26T08:31:59.111Z,30.63
2018-03-26T08:34:26.059Z,31.90
2018-03-26T08:36:52.248Z,30.67
2018-03-26T08:39:18.468Z,31.13
2018-03-26T08:41:44.660Z,29.73
2018-03-26T08:44:11.641Z,32.53
2018-03-26T08:46:37.835Z,28.53
2018-03-26T08:49:04.061Z,28.70
2018-03-26T08:51:31.036Z,27.20
2018-03-26T08:53:57.232Z,27.10
2018-03-26T08:56:23.455Z,24.77
2018-03-26T08:58:49.669Z,24.30
2018-03-26T09:01:15.889Z,24.77
2018-03-26T09:03:42.089Z,24.03
2018-03-26T09:06:08.317Z,25.60
2018-03-26T09:08:34.521Z,24.10
2018-03-26T09:11:01.480Z,21.33
2018-03-26T09:13:27.676Z,21.17
2018-03-26T09:15:53.900Z,22.53
2018-03-26T09:18:20.101Z,22.40
2018-03-26T09:20:46.321Z,20.10
2018-03-26T09:23:12.515Z,21.63
2018-03-26T09:25:46.450Z,21.33
2018-03-26T09:28:12.699Z,21.10
2018-03-26T09:30:38.921Z,18.50
2018-03-26T09:33:05.109Z,16.70
2018-03-26T09:35:32.076Z,17.73
2018-03-26T09:38:05.350Z,16.43
2018-03-26T09:40:32.348Z,15.77
2018-03-26T09:42:59.530Z,16.23
2018-03-26T09:45:27.232Z,10.23
2018-03-26T09:47:53.488Z,14.27
2018-03-26T09:50:19.729Z,13.40
2018-03-26T09:52:45.924Z,11.80
2018-03-26T09:55:12.192Z,11.20
2018-03-26T09:57:38.386Z,11.80
2018-03-26T10:00:04.616Z,9.70
2018-03-26T10:02:30.831Z,12.60
2018-03-26T10:04:57.440Z,12.30
2018-03-26T10:07:24.396Z,11.20
2018-03-26T10:09:51.336Z,10.93
2018-03-26T10:12:18.292Z,10.20
2018-03-26T10:14:45.224Z,11.40
2018-03-26T10:17:12.188Z,11.23
2018-03-26T10:19:39.124Z,10.17
2018-03-26T10:22:06.080Z,9.93
2018-03-26T10:24:33.008Z,10.03
2018-03-26T10:27:00.161Z,9.60
2018-03-26T10:29:27.089Z,11.07
2018-03-26T10:31:53.408Z,10.53
2018-03-26T10:34:19.604Z,10.90
2018-03-26T10:36:45.797Z,10.90
2018-03-26T10:39:12.764Z,10.23
2018-03-26T10:41:38.988Z,10.33
2018-03-26T10:44:05.936Z,10.97
2018-03-26T10:46:32.863Z,11.27
2018-03-26T10:48:59.830Z,10.07
2018-03-26T10:51:26.026Z,11.27
2018-03-26T10:53:52.253Z,9.60
2018-03-26T10:56:18.456Z,10.00
2018-03-26T10:58:44.676Z,10.03
2018-03-26T11:01:10.892Z,10.37
2018-03-26T11:03:37.115Z,12.67
2018-03-26T11:06:03.296Z,13.10
2018-03-26T11:08:29.549Z,14.80
2018-03-26T11:10:56.485Z,15.50
2018-03-26T11:13:23.444Z,15.70
2018-03-26T11:15:49.644Z,17.83
2018-03-26T11:18:15.837Z,17.77
2018-03-26T11:20:42.057Z,19.47
2018-03-26T11:23:08.250Z,21.97
2018-03-26T11:25:35.212Z,19.90
2018-03-26T11:28:01.477Z,19.30
2018-03-26T11:30:27.676Z,20.40
2018-03-26T11:32:53.866Z,18.30
2018-03-26T11:35:20.851Z,16.17
2018-03-26T11:37:47.042Z,18.83
2018-03-26T11:40:13.256Z,17.03
2018-03-26T11:42:39.450Z,16.40
2018-03-26T11:45:05.659Z,17.47
2018-03-26T11:47:31.848Z,17.60
2018-03-26T11:49:58.032Z,17.70
2018-03-26T11:52:24.248Z,16.63
2018-03-26T11:54:50.443Z,15.77
2018-03-26T11:57:16.931Z,18.30
2018-03-26T11:59:43.133Z,17.70
2018-03-26T12:02:10.106Z,15.73
2018-03-26T12:04:36.312Z,14.90
2018-03-26T12:07:02.853Z,16.97
2018-03-26T12:09:29.057Z,15.40
2018-03-26T12:11:56.016Z,15.23
2018-03-26T12:14:22.969Z,15.20
2018-03-26T12:16:49.353Z,16.77
2018-03-26T12:19:15.548Z,16.60
2018-03-26T12:21:41.740Z,16.77
2018-03-26T12:24:21.249Z,16.83
2018-03-26T12:26:47.472Z,15.43
2018-03-26T12:29:26.112Z,15.43
2018-03-26T12:31:53.048Z,15.67
2018-03-26T12:34:31.568Z,14.43
2018-03-26T12:36:57.755Z,14.07
2018-03-26T12:39:23.968Z,14.43
2018-03-26T12:41:50.169Z,13.60
2018-03-26T12:44:28.807Z,14.77
2018-03-26T12:46:55.809Z,15.57
2018-03-26T12:49:22.012Z,15.47
2018-03-26T12:52:00.799Z,15.33
2018-03-26T12:54:27.728Z,17.27
2018-03-26T12:57:07.453Z,13.90
2018-03-26T12:59:33.689Z,15.50
2018-03-26T13:02:12.284Z,14.50
2018-03-26T13:04:38.471Z,14.80
2018-03-26T13:07:05.404Z,15.27
2018-03-26T13:09:31.685Z,14.17
2018-03-26T13:11:58.276Z,15.03
2018-03-26T13:14:24.484Z,15.53
2018-03-26T13:16:50.740Z,15.53
2018-03-26T13:19:17.705Z,13.40
2018-03-26T13:21:43.974Z,14.37
2018-03-26T13:24:10.210Z,13.70
2018-03-26T13:26:36.441Z,13.20
2018-03-26T13:29:02.673Z,14.73
2018-03-26T13:31:28.865Z,16.67
2018-03-26T13:33:55.081Z,17.10
2018-03-26T13:36:21.272Z,17.13
2018-03-26T13:38:47.494Z,16.27
2018-03-26T13:41:13.698Z,15.60
2018-03-26T13:43:39.911Z,12.97
2018-03-26T13:46:06.452Z,8.40
2018-03-26T13:48:32.676Z,9.97
2018-03-26T13:50:59.612Z,11.40
2018-03-26T13:53:25.853Z,11.40
2018-03-26T13:55:52.044Z,11.63
2018-03-26T13:58:19.069Z,12.13
2018-03-26T14:00:45.264Z,13.15
2018-03-26T14:03:11.480Z,13.93
2018-03-26T14:05:37.676Z,14.43
2018-03-26T14:08:04.678Z,14.67
2018-03-26T14:10:43.076Z,14.60
2018-03-26T14:16:25.657Z,13.80
2018-03-26T14:18:51.869Z,12.80
2018-03-26T14:21:18.064Z,12.57
2018-03-26T14:23:44.434Z,15.30
2018-03-26T14:26:10.645Z,12.57
2018-03-26T14:28:36.857Z,11.47
2018-03-26T14:31:03.104Z,13.37
2018-03-26T14:33:29.305Z,17.07
2018-03-26T14:35:55.644Z,23.23
2018-03-26T14:38:22.584Z,23.30
2018-03-26T14:40:48.810Z,23.87
2018-03-26T14:43:15.078Z,24.20
2018-03-26T14:45:41.297Z,23.60
2018-03-26T14:48:07.509Z,25.57
2018-03-26T14:50:33.788Z,22.67
2018-03-26T14:52:59.986Z,21.30
2018-03-26T14:55:26.226Z,21.90
2018-03-26T14:57:52.437Z,21.00
2018-03-26T15:00:18.629Z,21.73
2018-03-26T15:02:45.633Z,21.77
2018-03-26T15:05:12.609Z,26.07
2018-03-26T15:07:39.576Z,23.40
2018-03-26T15:10:05.773Z,21.27
2018-03-26T15:12:32.009Z,28.70
2018-03-26T15:14:58.205Z,27.17
2018-03-26T15:17:24.432Z,26.53
2018-03-26T15:19:50.633Z,26.90
2018-03-26T15:22:16.853Z,25.57
2018-03-26T15:24:43.564Z,25.80
2018-03-26T15:27:09.791Z,27.43
2018-03-26T15:29:36.007Z,22.57
2018-03-26T15:32:02.201Z,25.20
2018-03-26T15:34:28.429Z,25.07
2018-03-26T15:36:54.648Z,25.13
2018-03-26T15:39:20.860Z,24.00
2018-03-26T15:41:47.057Z,25.50
2018-03-26T15:44:14.040Z,26.73
2018-03-26T15:46:40.968Z,27.83
2018-03-26T15:49:07.369Z,27.77
2018-03-26T15:51:33.555Z,27.77
2018-03-26T15:53:59.740Z,29.47
2018-03-26T15:56:25.960Z,27.80
2018-03-26T15:58:52.148Z,30.23
2018-03-26T16:01:18.365Z,29.97
2018-03-26T16:03:44.560Z,28.17
2018-03-26T16:06:10.782Z,29.10
2018-03-26T16:08:36.984Z,28.30
2018-03-26T16:11:03.221Z,29.40
2018-03-26T16:13:29.417Z,30.87
2018-03-26T16:15:55.636Z,31.27
2018-03-26T16:18:21.884Z,30.50
2018-03-26T16:20:48.106Z,29.80
2018-03-26T16:23:14.297Z,27.67
2018-03-26T16:25:41.292Z,30.30
2018-03-26T16:28:07.504Z,24.53
2018-03-26T16:30:33.720Z,30.00
2018-03-26T16:33:00.657Z,30.30
2018-03-26T16:35:27.654Z,18.30
2018-03-26T16:37:53.846Z,8.00
2018-03-26T16:40:20.036Z,3.77
2018-03-26T16:42:46.312Z,3.93
2018-03-26T16:45:12.763Z,5.30
2018-03-26T16:47:38.985Z,4.47
2018-03-26T16:50:05.180Z,4.87
2018-03-26T16:52:32.142Z,5.37
2018-03-26T16:54:58.336Z,9.90
2018-03-26T16:57:24.688Z,9.90
2018-03-26T16:59:50.900Z,7.13
2018-03-26T17:02:17.362Z,6.93
2018-03-26T17:04:44.315Z,5.00
2018-03-26T17:07:10.512Z,5.30
2018-03-26T17:09:36.732Z,6.40
2018-03-26T17:12:02.929Z,4.73
2018-03-26T17:14:29.143Z,5.47
2018-03-26T17:16:55.338Z,4.47
2018-03-26T17:19:22.314Z,4.60
2018-03-26T17:21:48.761Z,4.73
2018-03-26T17:24:15.032Z,4.77
2018-03-26T17:26:41.229Z,5.17
2018-03-26T17:29:07.456Z,4.97
2018-03-26T17:31:33.652Z,5.60
2018-03-26T17:33:59.840Z,6.43
2018-03-26T17:36:27.536Z,5.80
2018-03-26T17:38:54.477Z,6.30
2018-03-26T17:41:21.668Z,5.30
2018-03-26T17:43:47.865Z,5.83
2018-03-26T17:46:14.847Z,5.87
2018-03-26T17:48:41.085Z,6.40
2018-03-26T17:51:07.273Z,6.33
2018-03-26T17:53:34.208Z,5.63
2018-03-26T17:56:01.164Z,6.10
2018-03-26T17:58:27.351Z,6.67
2018-03-26T18:00:54.317Z,5.50
2018-03-26T18:03:21.254Z,6.70
2018-03-26T18:05:54.545Z,6.70
2018-03-26T18:08:20.736Z,5.50
2018-03-26T18:10:46.972Z,6.10
2018-03-26T18:13:13.172Z,5.63
2018-03-26T18:15:39.369Z,7.10
2018-03-26T18:18:05.583Z,6.53
2018-03-26T18:20:31.778Z,6.90
2018-03-26T18:22:58.027Z,7.07
2018-03-26T18:25:24.220Z,6.90
2018-03-26T18:27:50.436Z,6.10
2018-03-26T18:30:16.644Z,5.47
2018-03-26T18:32:42.860Z,8.00
2018-03-26T18:35:09.051Z,10.50
2018-03-26T18:37:35.287Z,8.80
2018-03-26T18:40:01.482Z,10.60
2018-03-26T18:42:27.706Z,8.17
2018-03-26T18:44:54.648Z,7.67
2018-03-26T18:47:20.937Z,11.20
2018-03-26T18:49:47.153Z,9.57
2018-03-26T18:52:13.676Z,8.90
2018-03-26T18:54:39.872Z,9.47
2018-03-26T18:57:06.898Z,8.83
2018-03-26T18:59:33.049Z,10.30
2018-03-26T19:02:07.112Z,12.37
2018-03-26T19:04:33.319Z,13.97
2018-03-26T19:06:59.514Z,14.40
2018-03-26T19:09:26.469Z,12.50
2018-03-26T19:11:52.665Z,11.67
2018-03-26T19:14:18.940Z,11.17
2018-03-26T19:16:45.178Z,12.17
2018-03-26T19:19:11.364Z,13.00
2018-03-26T19:21:38.300Z,12.57
2018-03-26T19:24:04.560Z,9.63
2018-03-26T19:26:30.752Z,11.17
2018-03-26T19:28:56.965Z,10.00
2018-03-26T19:31:23.161Z,11.47
2018-03-26T19:33:49.423Z,8.87
2018-03-26T19:36:15.616Z,11.50
2018-03-26T19:38:41.873Z,10.10
2018-03-26T19:41:08.097Z,10.07
2018-03-26T19:43:34.293Z,10.17
2018-03-26T19:46:00.517Z,10.50
2018-03-26T19:48:27.454Z,11.67
2018-03-26T19:50:54.417Z,10.73
2018-03-26T19:53:20.613Z,9.70
2018-03-26T19:55:46.815Z,10.00
2018-03-26T19:58:12.983Z,11.30
2018-03-26T20:00:39.919Z,10.03
2018-03-26T20:03:06.104Z,11.73
2018-03-26T20:05:32.332Z,10.83
2018-03-26T20:07:58.533Z,12.97
2018-03-26T20:10:24.760Z,10.63
2018-03-26T20:12:51.044Z,12.13
2018-03-26T20:15:17.240Z,11.87
2018-03-26T20:17:43.464Z,10.40
2018-03-26T20:20:09.688Z,11.40
2018-03-26T20:22:35.904Z,10.50
2018-03-26T20:25:02.864Z,11.07
2018-03-26T20:27:29.100Z,11.97
2018-03-26T20:29:55.301Z,11.00
2018-03-26T20:32:22.242Z,9.80
2018-03-26T20:34:49.201Z,10.60
2018-03-26T20:37:15.428Z,11.10
2018-03-26T20:39:41.625Z,11.10
2018-03-26T20:42:07.856Z,10.80
2018-03-26T20:44:34.047Z,10.60
2018-03-26T20:47:00.232Z,10.90
2018-03-26T20:49:27.189Z,10.20
2018-03-26T20:51:53.384Z,10.20
2018-03-26T20:54:19.612Z,11.23
2018-03-26T20:56:45.817Z,10.03
2018-03-26T20:59:12.036Z,12.17
2018-03-26T21:01:38.228Z,11.00
2018-03-26T21:04:05.200Z,10.87
2018-03-26T21:06:31.401Z,11.27
2018-03-26T21:08:58.355Z,9.23
2018-03-26T21:11:24.568Z,10.90
2018-03-26T21:13:51.520Z,11.13
2018-03-26T21:16:18.710Z,9.33
2018-03-26T21:18:44.927Z,10.40
2018-03-26T21:21:11.176Z,11.23
2018-03-26T21:23:37.359Z,10.80
2018-03-26T21:26:04.344Z,11.33
2018-03-26T21:28:30.556Z,12.10
2018-03-26T21:30:56.749Z,11.03
2018-03-26T21:33:23.712Z,11.40
2018-03-26T21:35:50.657Z,10.73
2018-03-26T21:38:18.070Z,11.53
2018-03-26T21:40:44.265Z,11.10
2018-03-26T21:43:10.481Z,10.50
2018-03-26T21:45:36.825Z,11.30
2018-03-26T21:48:03.082Z,11.43
2018-03-26T21:50:29.288Z,10.10
2018-03-26T21:52:55.486Z,10.30
2018-03-26T21:55:22.455Z,11.60
2018-03-26T21:57:48.657Z,12.17
2018-03-26T22:00:16.524Z,10.27
2018-03-26T22:02:43.476Z,10.63
2018-03-26T22:05:10.562Z,10.73
2018-03-26T22:07:36.757Z,11.00
2018-03-26T22:10:03.700Z,11.40
2018-03-26T22:12:30.684Z,10.60
2018-03-26T22:14:56.900Z,11.30
2018-03-26T22:17:23.132Z,9.80
2018-03-26T22:19:49.325Z,10.00
2018-03-26T22:22:16.288Z,9.47
2018-03-26T22:24:42.481Z,11.37
2018-03-26T22:27:08.693Z,11.07
2018-03-26T22:29:34.892Z,11.67
2018-03-26T22:32:01.109Z,11.83
2018-03-26T22:34:27.304Z,10.27
2018-03-26T22:36:54.264Z,11.10
2018-03-26T22:39:21.205Z,11.87
2018-03-26T22:41:48.160Z,10.93
2018-03-26T22:44:15.097Z,12.00
2018-03-26T22:46:42.084Z,11.80
2018-03-26T22:49:08.287Z,11.03
2018-03-26T22:51:35.244Z,10.37
2018-03-26T22:54:01.432Z,10.43
2018-03-26T22:56:27.781Z,12.83
2018-03-26T22:58:54.712Z,10.53
2018-03-26T23:01:21.233Z,10.50
2018-03-26T23:03:47.431Z,12.47
2018-03-26T23:06:13.643Z,11.43
2018-03-26T23:08:39.879Z,13.07
2018-03-26T23:11:06.068Z,11.10
2018-03-26T23:13:32.285Z,12.80
2018-03-26T23:15:59.256Z,12.10
2018-03-26T23:18:26.221Z,10.93
2018-03-26T23:20:52.449Z,12.70
2018-03-26T23:23:18.660Z,13.40
2018-03-26T23:25:45.597Z,12.40
2018-03-26T23:28:19.741Z,12.40
2018-03-26T23:30:45.937Z,12.90
2018-03-26T23:33:12.124Z,11.90
2018-03-26T23:35:38.380Z,13.70
2018-03-26T23:38:04.636Z,11.13
2018-03-26T23:40:31.575Z,12.10
2018-03-26T23:42:58.509Z,14.00
2018-03-26T23:45:24.725Z,13.17
2018-03-26T23:47:50.952Z,14.87
2018-03-26T23:50:17.160Z,14.70
2018-03-26T23:52:43.344Z,15.17
2018-03-26T23:55:10.316Z,12.90
2018-03-26T23:57:36.504Z,16.60
